sensor_id;sensor_type;location;lat;lon;timestamp;temperature;humidity
66740;DHT22;53653;52.188;8.602;2023-10-13T00:01:23;16.81;96.33
66740;DHT22;53653;52.188;8.602;2023-10-13T00:03:52;16.90;96.14
66740;DHT22;53653;52.188;8.602;2023-10-13T00:06:18;16.80;96.38
66740;DHT22;53653;52.188;8.602;2023-10-13T00:08:45;16.89;96.22
66740;DHT22;53653;52.188;8.602;2023-10-13T00:11:14;16.83;96.28
66740;DHT22;53653;52.188;8.602;2023-10-13T00:13:40;16.84;96.33
66740;DHT22;53653;52.188;8.602;2023-10-13T00:16:08;16.90;96.21
66740;DHT22;53653;52.188;8.602;2023-10-13T00:18:42;16.90;96.07
66740;DHT22;53653;52.188;8.602;2023-10-13T00:21:10;16.91;95.96
66740;DHT22;53653;52.188;8.602;2023-10-13T00:23:39;16.87;96.07
66740;DHT22;53653;52.188;8.602;2023-10-13T00:26:08;16.83;96.18
66740;DHT22;53653;52.188;8.602;2023-10-13T00:28:35;16.89;96.09
66740;DHT22;53653;52.188;8.602;2023-10-13T00:31:01;16.94;96.11
66740;DHT22;53653;52.188;8.602;2023-10-13T00:33:39;17.00;95.67
66740;DHT22;53653;52.188;8.602;2023-10-13T00:36:07;16.96;95.70
66740;DHT22;53653;52.188;8.602;2023-10-13T00:38:34;16.90;96.03
66740;DHT22;53653;52.188;8.602;2023-10-13T00:41:00;16.97;95.87
66740;DHT22;53653;52.188;8.602;2023-10-13T00:43:47;16.91;95.93
66740;DHT22;53653;52.188;8.602;2023-10-13T00:46:38;16.91;96.02
66740;DHT22;53653;52.188;8.602;2023-10-13T00:49:05;16.97;95.91
66740;DHT22;53653;52.188;8.602;2023-10-13T00:51:31;16.99;95.80
66740;DHT22;53653;52.188;8.602;2023-10-13T00:54:07;16.99;95.71
66740;DHT22;53653;52.188;8.602;2023-10-13T00:56:46;17.00;95.75
66740;DHT22;53653;52.188;8.602;2023-10-13T00:59:17;17.02;95.71
66740;DHT22;53653;52.188;8.602;2023-10-13T01:01:42;17.08;95.60
66740;DHT22;53653;52.188;8.602;2023-10-13T01:04:11;16.97;95.85
66740;DHT22;53653;52.188;8.602;2023-10-13T01:06:40;16.96;96.09
66740;DHT22;53653;52.188;8.602;2023-10-13T01:09:07;16.99;95.99
66740;DHT22;53653;52.188;8.602;2023-10-13T01:11:46;16.96;96.12
66740;DHT22;53653;52.188;8.602;2023-10-13T01:14:14;16.96;95.99
66740;DHT22;53653;52.188;8.602;2023-10-13T01:16:44;17.03;95.85
66740;DHT22;53653;52.188;8.602;2023-10-13T01:19:11;17.07;95.68
66740;DHT22;53653;52.188;8.602;2023-10-13T01:21:38;17.07;95.70
66740;DHT22;53653;52.188;8.602;2023-10-13T01:24:06;17.07;95.62
66740;DHT22;53653;52.188;8.602;2023-10-13T01:26:34;17.16;95.37
66740;DHT22;53653;52.188;8.602;2023-10-13T01:29:05;17.14;95.19
66740;DHT22;53653;52.188;8.602;2023-10-13T01:31:43;17.14;95.29
66740;DHT22;53653;52.188;8.602;2023-10-13T01:34:16;17.11;95.16
66740;DHT22;53653;52.188;8.602;2023-10-13T01:36:54;17.13;95.03
66740;DHT22;53653;52.188;8.602;2023-10-13T01:39:24;17.16;94.96
66740;DHT22;53653;52.188;8.602;2023-10-13T01:41:54;17.08;95.14
66740;DHT22;53653;52.188;8.602;2023-10-13T01:44:27;17.03;95.33
66740;DHT22;53653;52.188;8.602;2023-10-13T01:46:59;17.06;95.13
66740;DHT22;53653;52.188;8.602;2023-10-13T01:49:32;17.10;95.24
66740;DHT22;53653;52.188;8.602;2023-10-13T01:52:06;17.11;95.15
66740;DHT22;53653;52.188;8.602;2023-10-13T01:54:31;17.08;95.07
66740;DHT22;53653;52.188;8.602;2023-10-13T01:56:57;17.03;95.11
66740;DHT22;53653;52.188;8.602;2023-10-13T01:59:24;17.08;95.10
66740;DHT22;53653;52.188;8.602;2023-10-13T02:01:51;17.21;94.68
66740;DHT22;53653;52.188;8.602;2023-10-13T02:04:20;17.17;94.66
66740;DHT22;53653;52.188;8.602;2023-10-13T02:06:46;17.23;94.53
66740;DHT22;53653;52.188;8.602;2023-10-13T02:09:12;17.23;94.42
66740;DHT22;53653;52.188;8.602;2023-10-13T02:11:52;17.26;94.22
66740;DHT22;53653;52.188;8.602;2023-10-13T02:14:23;17.21;94.40
66740;DHT22;53653;52.188;8.602;2023-10-13T02:16:51;17.14;94.60
66740;DHT22;53653;52.188;8.602;2023-10-13T02:19:21;17.14;94.80
66740;DHT22;53653;52.188;8.602;2023-10-13T02:21:47;17.14;94.49
66740;DHT22;53653;52.188;8.602;2023-10-13T02:24:24;17.26;94.19
66740;DHT22;53653;52.188;8.602;2023-10-13T02:26:56;17.18;94.40
66740;DHT22;53653;52.188;8.602;2023-10-13T02:29:27;17.16;94.51
66740;DHT22;53653;52.188;8.602;2023-10-13T02:31:53;17.14;94.71
66740;DHT22;53653;52.188;8.602;2023-10-13T02:34:22;17.10;94.70
66740;DHT22;53653;52.188;8.602;2023-10-13T02:36:48;17.17;94.54
66740;DHT22;53653;52.188;8.602;2023-10-13T02:39:15;17.21;94.40
66740;DHT22;53653;52.188;8.602;2023-10-13T02:41:54;17.17;94.34
66740;DHT22;53653;52.188;8.602;2023-10-13T02:44:20;17.21;94.27
66740;DHT22;53653;52.188;8.602;2023-10-13T02:46:55;17.16;94.46
66740;DHT22;53653;52.188;8.602;2023-10-13T02:49:28;17.13;94.64
66740;DHT22;53653;52.188;8.602;2023-10-13T02:51:59;17.14;94.60
66740;DHT22;53653;52.188;8.602;2023-10-13T02:54:30;17.21;94.42
66740;DHT22;53653;52.188;8.602;2023-10-13T02:56:56;17.20;94.45
66740;DHT22;53653;52.188;8.602;2023-10-13T02:59:32;17.23;94.37
66740;DHT22;53653;52.188;8.602;2023-10-13T03:02:12;17.18;94.68
66740;DHT22;53653;52.188;8.602;2023-10-13T03:04:57;17.20;94.47
66740;DHT22;53653;52.188;8.602;2023-10-13T03:07:25;17.16;94.74
66740;DHT22;53653;52.188;8.602;2023-10-13T03:09:55;17.27;94.34
66740;DHT22;53653;52.188;8.602;2023-10-13T03:12:23;17.24;94.10
66740;DHT22;53653;52.188;8.602;2023-10-13T03:14:50;17.23;94.14
66740;DHT22;53653;52.188;8.602;2023-10-13T03:17:42;17.18;94.21
66740;DHT22;53653;52.188;8.602;2023-10-13T03:20:17;17.17;94.34
66740;DHT22;53653;52.188;8.602;2023-10-13T03:22:47;17.13;94.36
66740;DHT22;53653;52.188;8.602;2023-10-13T03:25:13;17.21;94.14
66740;DHT22;53653;52.188;8.602;2023-10-13T03:27:50;17.13;94.51
66740;DHT22;53653;52.188;8.602;2023-10-13T03:30:16;17.13;94.54
66740;DHT22;53653;52.188;8.602;2023-10-13T03:32:42;17.16;94.44
66740;DHT22;53653;52.188;8.602;2023-10-13T03:35:13;17.18;94.45
66740;DHT22;53653;52.188;8.602;2023-10-13T03:37:42;17.08;94.62
66740;DHT22;53653;52.188;8.602;2023-10-13T03:40:12;17.10;94.48
66740;DHT22;53653;52.188;8.602;2023-10-13T03:45:35;17.14;94.56
66740;DHT22;53653;52.188;8.602;2023-10-13T03:48:16;17.08;94.77
66740;DHT22;53653;52.188;8.602;2023-10-13T03:50:51;17.08;94.67
66740;DHT22;53653;52.188;8.602;2023-10-13T03:53:35;17.11;94.81
66740;DHT22;53653;52.188;8.602;2023-10-13T03:56:05;17.13;94.44
66740;DHT22;53653;52.188;8.602;2023-10-13T03:58:38;17.10;94.77
66740;DHT22;53653;52.188;8.602;2023-10-13T04:01:24;17.18;94.48
66740;DHT22;53653;52.188;8.602;2023-10-13T04:03:58;17.20;94.24
66740;DHT22;53653;52.188;8.602;2023-10-13T04:06:33;17.17;94.33
66740;DHT22;53653;52.188;8.602;2023-10-13T04:11:57;17.17;94.40
66740;DHT22;53653;52.188;8.602;2023-10-13T04:14:34;17.13;94.45
66740;DHT22;53653;52.188;8.602;2023-10-13T04:17:18;17.17;94.33
66740;DHT22;53653;52.188;8.602;2023-10-13T04:19:54;17.13;94.54
66740;DHT22;53653;52.188;8.602;2023-10-13T04:22:36;17.10;94.76
66740;DHT22;53653;52.188;8.602;2023-10-13T04:25:18;17.00;95.21
66740;DHT22;53653;52.188;8.602;2023-10-13T04:28:03;16.96;95.57
66740;DHT22;53653;52.188;8.602;2023-10-13T04:30:45;16.94;95.51
66740;DHT22;53653;52.188;8.602;2023-10-13T04:33:14;16.94;95.51
66740;DHT22;53653;52.188;8.602;2023-10-13T04:36:08;16.91;95.66
66740;DHT22;53653;52.188;8.602;2023-10-13T04:38:58;16.91;95.69
66740;DHT22;53653;52.188;8.602;2023-10-13T04:41:46;16.89;95.82
66740;DHT22;53653;52.188;8.602;2023-10-13T04:44:15;16.89;95.77
66740;DHT22;53653;52.188;8.602;2023-10-13T04:47:00;16.89;95.89
66740;DHT22;53653;52.188;8.602;2023-10-13T04:49:26;16.86;96.04
66740;DHT22;53653;52.188;8.602;2023-10-13T04:51:58;16.90;95.86
66740;DHT22;53653;52.188;8.602;2023-10-13T04:54:28;16.93;95.76
66740;DHT22;53653;52.188;8.602;2023-10-13T04:57:22;16.94;95.81
66740;DHT22;53653;52.188;8.602;2023-10-13T05:00:12;16.89;96.10
66740;DHT22;53653;52.188;8.602;2023-10-13T05:02:46;16.90;96.04
66740;DHT22;53653;52.188;8.602;2023-10-13T05:05:27;16.91;96.11
66740;DHT22;53653;52.188;8.602;2023-10-13T05:08:31;16.94;95.95
66740;DHT22;53653;52.188;8.602;2023-10-13T05:11:15;16.94;96.06
66740;DHT22;53653;52.188;8.602;2023-10-13T05:13:59;16.91;96.16
66740;DHT22;53653;52.188;8.602;2023-10-13T05:16:43;16.87;96.42
66740;DHT22;53653;52.188;8.602;2023-10-13T05:19:26;16.84;96.53
66740;DHT22;53653;52.188;8.602;2023-10-13T05:22:10;16.87;96.57
66740;DHT22;53653;52.188;8.602;2023-10-13T05:24:55;16.84;96.67
66740;DHT22;53653;52.188;8.602;2023-10-13T05:27:40;16.86;96.83
66740;DHT22;53653;52.188;8.602;2023-10-13T05:30:24;16.77;97.03
66740;DHT22;53653;52.188;8.602;2023-10-13T05:33:07;16.79;97.20
66740;DHT22;53653;52.188;8.602;2023-10-13T05:35:51;16.75;96.99
66740;DHT22;53653;52.188;8.602;2023-10-13T05:38:55;16.77;96.85
66740;DHT22;53653;52.188;8.602;2023-10-13T05:41:39;16.77;96.87
66740;DHT22;53653;52.188;8.602;2023-10-13T05:44:23;16.70;96.77
66740;DHT22;53653;52.188;8.602;2023-10-13T05:47:18;16.76;96.41
66740;DHT22;53653;52.188;8.602;2023-10-13T05:50:02;16.77;96.09
66740;DHT22;53653;52.188;8.602;2023-10-13T05:52:38;16.76;96.16
66740;DHT22;53653;52.188;8.602;2023-10-13T05:55:19;16.79;95.83
66740;DHT22;53653;52.188;8.602;2023-10-13T05:58:03;16.76;95.92
66740;DHT22;53653;52.188;8.602;2023-10-13T06:00:47;16.75;95.90
66740;DHT22;53653;52.188;8.602;2023-10-13T06:03:31;16.73;96.03
66740;DHT22;53653;52.188;8.602;2023-10-13T06:06:15;16.72;96.22
66740;DHT22;53653;52.188;8.602;2023-10-13T06:08:59;16.69;96.29
66740;DHT22;53653;52.188;8.602;2023-10-13T06:11:42;16.65;96.75
66740;DHT22;53653;52.188;8.602;2023-10-13T06:14:26;16.58;97.50
66740;DHT22;53653;52.188;8.602;2023-10-13T06:17:10;16.56;97.73
66740;DHT22;53653;52.188;8.602;2023-10-13T06:19:54;16.55;98.32
66740;DHT22;53653;52.188;8.602;2023-10-13T06:22:38;16.52;98.49
66740;DHT22;53653;52.188;8.602;2023-10-13T06:25:22;16.53;98.62
66740;DHT22;53653;52.188;8.602;2023-10-13T06:28:06;16.55;98.77
66740;DHT22;53653;52.188;8.602;2023-10-13T06:30:57;16.55;98.77
66740;DHT22;53653;52.188;8.602;2023-10-13T06:33:23;16.59;98.83
66740;DHT22;53653;52.188;8.602;2023-10-13T06:35:57;16.62;98.78
66740;DHT22;53653;52.188;8.602;2023-10-13T06:38:23;16.73;98.49
66740;DHT22;53653;52.188;8.602;2023-10-13T06:40:49;16.76;98.33
66740;DHT22;53653;52.188;8.602;2023-10-13T06:43:17;16.80;98.21
66740;DHT22;53653;52.188;8.602;2023-10-13T06:45:44;16.86;98.09
66740;DHT22;53653;52.188;8.602;2023-10-13T06:48:24;16.91;97.89
66740;DHT22;53653;52.188;8.602;2023-10-13T06:50:50;16.94;97.72
66740;DHT22;53653;52.188;8.602;2023-10-13T06:53:20;16.97;97.74
66740;DHT22;53653;52.188;8.602;2023-10-13T06:55:46;17.11;97.41
66740;DHT22;53653;52.188;8.602;2023-10-13T06:58:25;17.23;96.60
66740;DHT22;53653;52.188;8.602;2023-10-13T07:00:51;17.34;96.19
66740;DHT22;53653;52.188;8.602;2023-10-13T07:03:21;17.35;96.24
66740;DHT22;53653;52.188;8.602;2023-10-13T07:05:47;17.27;96.62
66740;DHT22;53653;52.188;8.602;2023-10-13T07:08:16;17.30;96.88
66740;DHT22;53653;52.188;8.602;2023-10-13T07:10:54;17.27;97.09
66740;DHT22;53653;52.188;8.602;2023-10-13T07:13:34;17.17;97.54
66740;DHT22;53653;52.188;8.602;2023-10-13T07:16:05;17.21;97.72
66740;DHT22;53653;52.188;8.602;2023-10-13T07:18:33;17.28;97.36
66740;DHT22;53653;52.188;8.602;2023-10-13T07:21:03;17.37;96.95
66740;DHT22;53653;52.188;8.602;2023-10-13T07:23:36;17.34;97.22
66740;DHT22;53653;52.188;8.602;2023-10-13T07:26:01;17.47;96.89
66740;DHT22;53653;52.188;8.602;2023-10-13T07:28:30;17.54;96.39
66740;DHT22;53653;52.188;8.602;2023-10-13T07:30:59;17.61;96.09
66740;DHT22;53653;52.188;8.602;2023-10-13T07:33:25;17.75;95.71
66740;DHT22;53653;52.188;8.602;2023-10-13T07:36:01;17.83;95.52
66740;DHT22;53653;52.188;8.602;2023-10-13T07:38:35;17.86;95.01
66740;DHT22;53653;52.188;8.602;2023-10-13T07:41:03;17.93;95.16
66740;DHT22;53653;52.188;8.602;2023-10-13T07:43:34;17.93;95.04
66740;DHT22;53653;52.188;8.602;2023-10-13T07:46:02;17.86;95.48
66740;DHT22;53653;52.188;8.602;2023-10-13T07:48:37;17.92;95.29
66740;DHT22;53653;52.188;8.602;2023-10-13T07:51:05;17.90;95.39
66740;DHT22;53653;52.188;8.602;2023-10-13T07:53:35;17.92;95.25
66740;DHT22;53653;52.188;8.602;2023-10-13T07:56:01;18.03;94.96
66740;DHT22;53653;52.188;8.602;2023-10-13T07:58:39;18.04;94.71
66740;DHT22;53653;52.188;8.602;2023-10-13T08:01:23;18.06;94.83
66740;DHT22;53653;52.188;8.602;2023-10-13T08:03:50;18.00;95.00
66740;DHT22;53653;52.188;8.602;2023-10-13T08:06:29;18.04;95.01
66740;DHT22;53653;52.188;8.602;2023-10-13T08:08:55;18.02;94.96
66740;DHT22;53653;52.188;8.602;2023-10-13T08:11:32;18.06;94.80
66740;DHT22;53653;52.188;8.602;2023-10-13T08:14:01;18.10;94.80
66740;DHT22;53653;52.188;8.602;2023-10-13T08:16:39;18.13;94.73
66740;DHT22;53653;52.188;8.602;2023-10-13T08:19:19;18.12;94.76
66740;DHT22;53653;52.188;8.602;2023-10-13T08:21:48;18.09;94.94
66740;DHT22;53653;52.188;8.602;2023-10-13T08:24:17;18.17;94.53
66740;DHT22;53653;52.188;8.602;2023-10-13T08:26:51;18.20;94.38
66740;DHT22;53653;52.188;8.602;2023-10-13T08:29:45;18.18;94.46
66740;DHT22;53653;52.188;8.602;2023-10-13T08:32:34;18.32;94.20
66740;DHT22;53653;52.188;8.602;2023-10-13T08:35:20;18.30;94.08
66740;DHT22;53653;52.188;8.602;2023-10-13T08:37:59;18.33;94.02
66740;DHT22;53653;52.188;8.602;2023-10-13T08:40:27;18.43;93.68
66740;DHT22;53653;52.188;8.602;2023-10-13T08:43:12;18.37;94.09
66740;DHT22;53653;52.188;8.602;2023-10-13T08:45:42;18.41;93.97
66740;DHT22;53653;52.188;8.602;2023-10-13T08:48:09;18.54;93.84
66740;DHT22;53653;52.188;8.602;2023-10-13T08:50:43;18.65;93.49
66740;DHT22;53653;52.188;8.602;2023-10-13T08:53:31;18.79;93.12
66740;DHT22;53653;52.188;8.602;2023-10-13T08:58:29;18.95;92.00
66740;DHT22;53653;52.188;8.602;2023-10-13T09:01:15;19.03;91.71
66740;DHT22;53653;52.188;8.602;2023-10-13T09:04:04;19.27;91.37
66740;DHT22;53653;52.188;8.602;2023-10-13T09:07:05;19.33;91.12
66740;DHT22;53653;52.188;8.602;2023-10-13T09:12:12;19.18;91.40
66740;DHT22;53653;52.188;8.602;2023-10-13T09:14:42;19.34;91.36
66740;DHT22;53653;52.188;8.602;2023-10-13T09:17:10;19.47;90.25
66740;DHT22;53653;52.188;8.602;2023-10-13T09:19:48;19.63;89.84
66740;DHT22;53653;52.188;8.602;2023-10-13T09:22:40;20.07;88.79
66740;DHT22;53653;52.188;8.602;2023-10-13T09:25:08;20.15;88.86
66740;DHT22;53653;52.188;8.602;2023-10-13T09:27:39;20.50;87.68
66740;DHT22;53653;52.188;8.602;2023-10-13T09:30:05;20.62;87.01
66740;DHT22;53653;52.188;8.602;2023-10-13T09:33:02;20.87;85.98
66740;DHT22;53653;52.188;8.602;2023-10-13T09:35:31;20.72;86.07
66740;DHT22;53653;52.188;8.602;2023-10-13T09:38:00;20.56;86.94
66740;DHT22;53653;52.188;8.602;2023-10-13T09:40:30;20.24;88.16
66740;DHT22;53653;52.188;8.602;2023-10-13T09:42:59;20.15;88.47
66740;DHT22;53653;52.188;8.602;2023-10-13T09:45:34;20.18;88.45
66740;DHT22;53653;52.188;8.602;2023-10-13T09:48:11;20.11;88.07
66740;DHT22;53653;52.188;8.602;2023-10-13T09:50:47;20.05;87.71
66740;DHT22;53653;52.188;8.602;2023-10-13T09:53:15;20.08;87.81
66740;DHT22;53653;52.188;8.602;2023-10-13T09:56:07;20.24;87.38
66740;DHT22;53653;52.188;8.602;2023-10-13T09:58:47;20.32;85.88
66740;DHT22;53653;52.188;8.602;2023-10-13T10:01:19;20.57;85.42
66740;DHT22;53653;52.188;8.602;2023-10-13T10:04:07;20.81;84.75
66740;DHT22;53653;52.188;8.602;2023-10-13T10:06:37;21.15;82.37
66740;DHT22;53653;52.188;8.602;2023-10-13T10:09:17;21.25;82.02
66740;DHT22;53653;52.188;8.602;2023-10-13T10:15:20;21.49;79.86
66740;DHT22;53653;52.188;8.602;2023-10-13T10:17:56;21.80;79.48
66740;DHT22;53653;52.188;8.602;2023-10-13T10:20:32;21.58;78.83
66740;DHT22;53653;52.188;8.602;2023-10-13T10:23:05;21.59;78.97
66740;DHT22;53653;52.188;8.602;2023-10-13T10:25:36;21.73;78.29
66740;DHT22;53653;52.188;8.602;2023-10-13T10:28:06;21.85;77.93
66740;DHT22;53653;52.188;8.602;2023-10-13T10:30:37;21.75;77.65
66740;DHT22;53653;52.188;8.602;2023-10-13T10:33:08;21.99;76.81
66740;DHT22;53653;52.188;8.602;2023-10-13T10:35:47;22.18;76.42
66740;DHT22;53653;52.188;8.602;2023-10-13T10:38:19;22.17;76.45
66740;DHT22;53653;52.188;8.602;2023-10-13T10:40:55;22.48;75.02
66740;DHT22;53653;52.188;8.602;2023-10-13T10:45:54;23.17;73.19
66740;DHT22;53653;52.188;8.602;2023-10-13T10:48:25;23.57;71.94
66740;DHT22;53653;52.188;8.602;2023-10-13T10:50:57;23.50;70.90
66740;DHT22;53653;52.188;8.602;2023-10-13T10:53:24;23.36;72.10
66740;DHT22;53653;52.188;8.602;2023-10-13T10:56:07;23.33;72.31
66740;DHT22;53653;52.188;8.602;2023-10-13T10:58:47;23.55;70.95
66740;DHT22;53653;52.188;8.602;2023-10-13T11:01:15;23.74;70.64
66740;DHT22;53653;52.188;8.602;2023-10-13T11:03:54;23.64;70.52
66740;DHT22;53653;52.188;8.602;2023-10-13T11:06:23;23.68;70.55
66740;DHT22;53653;52.188;8.602;2023-10-13T11:09:06;23.97;69.49
66740;DHT22;53653;52.188;8.602;2023-10-13T11:11:47;23.65;70.36
66740;DHT22;53653;52.188;8.602;2023-10-13T11:14:25;23.33;70.74
66740;DHT22;53653;52.188;8.602;2023-10-13T11:16:52;23.15;71.03
66740;DHT22;53653;52.188;8.602;2023-10-13T11:19:34;23.19;71.19
66740;DHT22;53653;52.188;8.602;2023-10-13T11:22:16;23.19;70.77
66740;DHT22;53653;52.188;8.602;2023-10-13T11:24:58;23.49;70.02
66740;DHT22;53653;52.188;8.602;2023-10-13T11:27:31;23.68;68.73
66740;DHT22;53653;52.188;8.602;2023-10-13T11:30:13;24.64;67.12
66740;DHT22;53653;52.188;8.602;2023-10-13T11:32:43;24.59;67.46
66740;DHT22;53653;52.188;8.602;2023-10-13T11:35:12;24.40;67.77
66740;DHT22;53653;52.188;8.602;2023-10-13T11:37:54;25.01;65.25
66740;DHT22;53653;52.188;8.602;2023-10-13T11:40:38;24.35;66.68
66740;DHT22;53653;52.188;8.602;2023-10-13T11:43:24;23.94;67.66
66740;DHT22;53653;52.188;8.602;2023-10-13T11:45:50;23.97;66.42
66740;DHT22;53653;52.188;8.602;2023-10-13T11:48:39;24.73;64.36
66740;DHT22;53653;52.188;8.602;2023-10-13T11:51:06;25.31;63.01
66740;DHT22;53653;52.188;8.602;2023-10-13T11:53:43;24.56;65.76
66740;DHT22;53653;52.188;8.602;2023-10-13T11:56:09;24.13;65.33
66740;DHT22;53653;52.188;8.602;2023-10-13T11:58:36;24.09;66.17
66740;DHT22;53653;52.188;8.602;2023-10-13T12:01:02;23.88;65.84
66740;DHT22;53653;52.188;8.602;2023-10-13T12:03:33;23.65;66.67
66740;DHT22;53653;52.188;8.602;2023-10-13T12:06:17;23.58;65.84
66740;DHT22;53653;52.188;8.602;2023-10-13T12:08:45;23.88;65.44
66740;DHT22;53653;52.188;8.602;2023-10-13T12:11:18;24.29;64.53
66740;DHT22;53653;52.188;8.602;2023-10-13T12:13:56;24.80;62.75
66740;DHT22;53653;52.188;8.602;2023-10-13T12:16:22;25.14;61.91
66740;DHT22;53653;52.188;8.602;2023-10-13T12:18:48;25.08;62.00
66740;DHT22;53653;52.188;8.602;2023-10-13T12:21:19;24.67;63.06
66740;DHT22;53653;52.188;8.602;2023-10-13T12:23:46;24.74;62.56
66740;DHT22;53653;52.188;8.602;2023-10-13T12:26:12;24.84;61.98
66740;DHT22;53653;52.188;8.602;2023-10-13T12:29:00;25.04;60.99
66740;DHT22;53653;52.188;8.602;2023-10-13T12:31:32;25.19;61.63
66740;DHT22;53653;52.188;8.602;2023-10-13T12:34:04;24.87;62.02
66740;DHT22;53653;52.188;8.602;2023-10-13T12:36:39;24.70;63.26
66740;DHT22;53653;52.188;8.602;2023-10-13T12:39:18;24.40;63.29
66740;DHT22;53653;52.188;8.602;2023-10-13T12:42:03;24.33;63.79
66740;DHT22;53653;52.188;8.602;2023-10-13T12:44:47;24.37;63.36
66740;DHT22;53653;52.188;8.602;2023-10-13T12:47:31;24.84;63.02
66740;DHT22;53653;52.188;8.602;2023-10-13T12:50:16;25.00;62.57
66740;DHT22;53653;52.188;8.602;2023-10-13T12:53:00;25.04;63.06
66740;DHT22;53653;52.188;8.602;2023-10-13T12:55:25;25.19;61.98
66740;DHT22;53653;52.188;8.602;2023-10-13T12:57:51;25.06;62.06
66740;DHT22;53653;52.188;8.602;2023-10-13T13:00:16;24.98;62.32
66740;DHT22;53653;52.188;8.602;2023-10-13T13:02:48;25.25;62.76
66740;DHT22;53653;52.188;8.602;2023-10-13T13:05:17;25.42;62.12
66740;DHT22;53653;52.188;8.602;2023-10-13T13:07:47;25.58;61.43
66740;DHT22;53653;52.188;8.602;2023-10-13T13:10:15;25.56;61.33
66740;DHT22;53653;52.188;8.602;2023-10-13T13:12:41;25.70;60.48
66740;DHT22;53653;52.188;8.602;2023-10-13T13:15:07;25.66;61.39
66740;DHT22;53653;52.188;8.602;2023-10-13T13:17:37;25.35;60.79
66740;DHT22;53653;52.188;8.602;2023-10-13T13:20:07;25.15;61.36
66740;DHT22;53653;52.188;8.602;2023-10-13T13:22:39;25.10;61.21
66740;DHT22;53653;52.188;8.602;2023-10-13T13:25:05;25.17;61.55
66740;DHT22;53653;52.188;8.602;2023-10-13T13:27:35;25.10;61.07
66740;DHT22;53653;52.188;8.602;2023-10-13T13:30:02;25.34;59.83
66740;DHT22;53653;52.188;8.602;2023-10-13T13:32:28;25.62;58.65
66740;DHT22;53653;52.188;8.602;2023-10-13T13:34:54;25.79;58.87
66740;DHT22;53653;52.188;8.602;2023-10-13T13:37:22;25.89;59.00
66740;DHT22;53653;52.188;8.602;2023-10-13T13:39:48;25.69;57.94
66740;DHT22;53653;52.188;8.602;2023-10-13T13:42:13;25.87;58.62
66740;DHT22;53653;52.188;8.602;2023-10-13T13:44:45;25.66;57.58
66740;DHT22;53653;52.188;8.602;2023-10-13T13:47:15;25.65;58.70
66740;DHT22;53653;52.188;8.602;2023-10-13T13:49:42;25.66;57.48
66740;DHT22;53653;52.188;8.602;2023-10-13T13:52:19;25.70;57.91
66740;DHT22;53653;52.188;8.602;2023-10-13T13:54:58;25.87;57.44
66740;DHT22;53653;52.188;8.602;2023-10-13T13:57:28;25.48;56.85
66740;DHT22;53653;52.188;8.602;2023-10-13T13:59:55;25.61;57.92
66740;DHT22;53653;52.188;8.602;2023-10-13T14:02:23;25.72;57.67
66740;DHT22;53653;52.188;8.602;2023-10-13T14:04:48;25.59;57.36
66740;DHT22;53653;52.188;8.602;2023-10-13T14:07:21;25.43;56.67
66740;DHT22;53653;52.188;8.602;2023-10-13T14:09:49;25.46;57.27
66740;DHT22;53653;52.188;8.602;2023-10-13T14:12:18;25.32;57.29
66740;DHT22;53653;52.188;8.602;2023-10-13T14:15:07;25.21;57.69
66740;DHT22;53653;52.188;8.602;2023-10-13T14:17:45;25.27;57.94
66740;DHT22;53653;52.188;8.602;2023-10-13T14:20:11;25.22;57.58
66740;DHT22;53653;52.188;8.602;2023-10-13T14:22:44;25.17;57.89
66740;DHT22;53653;52.188;8.602;2023-10-13T14:25:13;25.15;57.32
66740;DHT22;53653;52.188;8.602;2023-10-13T14:27:41;25.10;58.06
66740;DHT22;53653;52.188;8.602;2023-10-13T14:30:07;25.10;58.40
66740;DHT22;53653;52.188;8.602;2023-10-13T14:32:32;24.87;57.78
66740;DHT22;53653;52.188;8.602;2023-10-13T14:35:04;24.90;58.52
66740;DHT22;53653;52.188;8.602;2023-10-13T14:37:40;24.94;58.87
66740;DHT22;53653;52.188;8.602;2023-10-13T14:40:06;24.87;58.51
66740;DHT22;53653;52.188;8.602;2023-10-13T14:42:36;24.74;58.80
66740;DHT22;53653;52.188;8.602;2023-10-13T14:45:06;24.60;59.20
66740;DHT22;53653;52.188;8.602;2023-10-13T14:47:41;24.44;59.03
66740;DHT22;53653;52.188;8.602;2023-10-13T14:50:06;24.48;59.37
66740;DHT22;53653;52.188;8.602;2023-10-13T14:52:33;24.40;59.17
66740;DHT22;53653;52.188;8.602;2023-10-13T14:54:59;24.26;59.21
66740;DHT22;53653;52.188;8.602;2023-10-13T14:57:24;24.18;59.92
66740;DHT22;53653;52.188;8.602;2023-10-13T14:59:52;24.15;60.24
66740;DHT22;53653;52.188;8.602;2023-10-13T15:02:18;24.05;60.76
66740;DHT22;53653;52.188;8.602;2023-10-13T15:04:43;23.98;61.06
66740;DHT22;53653;52.188;8.602;2023-10-13T15:07:08;23.94;60.03
66740;DHT22;53653;52.188;8.602;2023-10-13T15:09:34;23.94;60.40
66740;DHT22;53653;52.188;8.602;2023-10-13T15:12:00;23.79;60.92
66740;DHT22;53653;52.188;8.602;2023-10-13T15:14:30;23.75;61.40
66740;DHT22;53653;52.188;8.602;2023-10-13T15:16:58;23.78;60.75
66740;DHT22;53653;52.188;8.602;2023-10-13T15:19:25;23.74;60.66
66740;DHT22;53653;52.188;8.602;2023-10-13T15:21:51;23.74;60.36
66740;DHT22;53653;52.188;8.602;2023-10-13T15:24:18;23.77;60.38
66740;DHT22;53653;52.188;8.602;2023-10-13T15:26:44;23.64;60.88
66740;DHT22;53653;52.188;8.602;2023-10-13T15:29:18;23.60;60.84
66740;DHT22;53653;52.188;8.602;2023-10-13T15:31:51;23.58;60.92
66740;DHT22;53653;52.188;8.602;2023-10-13T15:34:26;23.61;60.84
66740;DHT22;53653;52.188;8.602;2023-10-13T15:36:53;23.55;60.88
66740;DHT22;53653;52.188;8.602;2023-10-13T15:39:21;23.47;61.21
66740;DHT22;53653;52.188;8.602;2023-10-13T15:41:52;23.39;61.44
66740;DHT22;53653;52.188;8.602;2023-10-13T15:44:21;23.47;61.09
66740;DHT22;53653;52.188;8.602;2023-10-13T15:46:54;23.44;61.13
66740;DHT22;53653;52.188;8.602;2023-10-13T15:49:19;23.39;61.48
66740;DHT22;53653;52.188;8.602;2023-10-13T15:51:45;23.31;61.78
66740;DHT22;53653;52.188;8.602;2023-10-13T15:54:11;23.30;61.48
66740;DHT22;53653;52.188;8.602;2023-10-13T15:56:47;23.28;61.41
66740;DHT22;53653;52.188;8.602;2023-10-13T15:59:14;23.30;61.37
66740;DHT22;53653;52.188;8.602;2023-10-13T16:01:40;23.27;61.58
66740;DHT22;53653;52.188;8.602;2023-10-13T16:04:09;23.27;61.48
66740;DHT22;53653;52.188;8.602;2023-10-13T16:06:44;23.16;62.06
66740;DHT22;53653;52.188;8.602;2023-10-13T16:09:19;23.13;61.56
66740;DHT22;53653;52.188;8.602;2023-10-13T16:11:53;23.06;61.57
66740;DHT22;53653;52.188;8.602;2023-10-13T16:14:19;23.06;61.69
66740;DHT22;53653;52.188;8.602;2023-10-13T16:16:46;23.05;61.37
66740;DHT22;53653;52.188;8.602;2023-10-13T16:19:19;23.00;61.76
66740;DHT22;53653;52.188;8.602;2023-10-13T16:21:49;22.95;62.02
66740;DHT22;53653;52.188;8.602;2023-10-13T16:24:14;22.99;61.82
66740;DHT22;53653;52.188;8.602;2023-10-13T16:26:47;22.94;62.17